Time;durP1;ratioP1;P1;durP2;ratioP2;P2;SDS_P1;SDS_P2;PMS_P1;PMS_P2;Temp;Humidity;BMP_temperature;BMP_pressure;BME280_temperature;BME280_humidity;BME280_pressure;Samples;Min_cycle;Max_cycle;Signal;HPM_P1;HPM_P2
2022/10/16 00:00:42;;;;;;;8.95;2.20;;;12.20;99.90;;;;;;4967751;28;207747;-71
2022/10/16 00:03:09;;;;;;;11.50;2.38;;;12.10;99.90;;;;;;4996052;28;20427;-71
2022/10/16 00:05:41;;;;;;;13.55;2.50;;;12.20;99.90;;;;;;4968949;28;202212;-70
2022/10/16 00:08:08;;;;;;;11.73;2.17;;;12.20;99.90;;;;;;5017449;28;20049;-71
2022/10/16 00:10:35;;;;;;;9.30;2.20;;;12.20;99.90;;;;;;4972760;28;211815;-71
2022/10/16 00:13:01;;;;;;;11.02;2.10;;;12.20;99.90;;;;;;5031672;28;20037;-71
2022/10/16 00:15:27;;;;;;;15.07;2.40;;;12.20;99.90;;;;;;4953143;28;208420;-71
2022/10/16 00:17:53;;;;;;;13.07;2.40;;;12.20;99.90;;;;;;5007425;28;20057;-71
2022/10/16 00:20:19;;;;;;;11.02;2.00;;;12.20;99.90;;;;;;4972348;28;211370;-71
2022/10/16 00:22:46;;;;;;;9.98;1.92;;;12.20;99.90;;;;;;5009970;28;20536;-72
2022/10/16 00:25:12;;;;;;;12.75;2.42;;;12.20;99.90;;;;;;4979131;28;202948;-72
2022/10/16 00:27:38;;;;;;;10.23;2.40;;;12.20;99.90;;;;;;5015936;28;20064;-70
2022/10/16 00:30:05;;;;;;;13.02;2.20;;;12.20;99.90;;;;;;4953658;28;212976;-70
2022/10/16 00:32:31;;;;;;;12.90;2.85;;;12.20;99.90;;;;;;4992632;28;20069;-71
2022/10/16 00:34:57;;;;;;;14.90;2.22;;;12.20;99.90;;;;;;4963367;28;213756;-71
2022/10/16 00:37:23;;;;;;;10.02;1.95;;;12.30;99.90;;;;;;5012805;28;20050;-70
2022/10/16 00:39:50;;;;;;;13.63;2.40;;;12.30;99.90;;;;;;4964558;28;225350;-70
2022/10/16 00:42:18;;;;;;;12.10;1.95;;;12.30;99.90;;;;;;5022466;28;20828;-70
2022/10/16 00:44:55;;;;;;;10.73;2.13;;;12.30;99.90;;;;;;4981851;28;211835;-70
2022/10/16 00:47:29;;;;;;;12.55;1.80;;;12.30;99.90;;;;;;5010652;28;20052;-71
2022/10/16 00:50:06;;;;;;;13.85;2.03;;;12.40;99.90;;;;;;4975092;28;213116;-71
2022/10/16 00:52:32;;;;;;;10.23;1.65;;;12.40;99.90;;;;;;5001195;28;20045;-71
2022/10/16 00:54:59;;;;;;;13.18;2.30;;;12.50;99.90;;;;;;4968249;28;215894;-71
2022/10/16 00:57:26;;;;;;;8.20;1.55;;;12.50;99.90;;;;;;5008308;28;20418;-71
2022/10/16 00:59:54;;;;;;;10.57;1.70;;;12.50;99.90;;;;;;4973741;28;220919;-71
2022/10/16 01:02:20;;;;;;;13.02;2.20;;;12.50;99.90;;;;;;5009291;28;20052;-71
2022/10/16 01:04:50;;;;;;;9.60;2.03;;;12.50;99.90;;;;;;4987116;28;215285;-71
2022/10/16 01:07:24;;;;;;;10.57;1.70;;;12.50;99.90;;;;;;4996830;28;20636;-71
2022/10/16 01:09:59;;;;;;;9.82;1.83;;;12.50;99.90;;;;;;4977324;28;254585;-70
2022/10/16 01:13:09;;;;;;;11.77;2.30;;;12.50;99.90;;;;;;5027265;28;20041;-71
2022/10/16 01:15:38;;;;;;;13.93;1.88;;;12.50;99.90;;;;;;4908997;28;212837;-71
2022/10/16 01:18:15;;;;;;;10.73;2.20;;;12.50;99.90;;;;;;4973628;28;20069;-70
2022/10/16 01:20:54;;;;;;;9.95;1.88;;;12.50;99.90;;;;;;4904454;28;209471;-70
2022/10/16 01:23:26;;;;;;;11.35;1.88;;;12.50;99.90;;;;;;4960291;28;20051;-70
2022/10/16 01:26:20;;;;;;;9.20;1.75;;;12.50;99.90;;;;;;4929563;28;229865;-70
2022/10/16 01:29:07;;;;;;;9.43;1.85;;;12.50;99.90;;;;;;4960894;28;20050;-71
2022/10/16 01:31:36;;;;;;;9.23;1.98;;;12.60;99.90;;;;;;4920684;28;206732;-70
2022/10/16 01:34:08;;;;;;;9.23;1.85;;;12.60;99.90;;;;;;4961432;28;20460;-70
2022/10/16 01:36:41;;;;;;;10.82;1.83;;;12.60;99.90;;;;;;4891471;28;229832;-70
2022/10/16 01:39:10;;;;;;;8.10;1.80;;;12.60;99.90;;;;;;4976727;28;20062;-71
2022/10/16 01:41:47;;;;;;;9.13;1.63;;;12.60;99.90;;;;;;4908199;28;219105;-70
2022/10/16 01:44:19;;;;;;;10.93;2.05;;;12.60;99.90;;;;;;4986629;28;20050;-71
2022/10/16 01:46:50;;;;;;;9.68;1.67;;;12.60;99.90;;;;;;4930291;28;212925;-70
2022/10/16 01:49:18;;;;;;;10.75;1.75;;;12.60;99.90;;;;;;5021318;28;20115;-71
2022/10/16 01:51:47;;;;;;;8.88;1.80;;;12.60;99.90;;;;;;4972601;28;210032;-70
2022/10/16 01:54:16;;;;;;;11.85;1.95;;;12.60;99.90;;;;;;5023466;28;20045;-70
2022/10/16 01:56:43;;;;;;;11.65;1.80;;;12.60;99.90;;;;;;4963980;28;207125;-71
2022/10/16 01:59:18;;;;;;;10.00;1.77;;;12.60;99.90;;;;;;5015821;28;20084;-71
2022/10/16 02:01:49;;;;;;;9.98;1.90;;;12.60;99.90;;;;;;4956348;28;202580;-71
2022/10/16 02:04:17;;;;;;;7.65;1.58;;;12.60;99.90;;;;;;5017306;28;20048;-71
2022/10/16 02:06:43;;;;;;;10.93;1.98;;;12.70;99.90;;;;;;4966177;28;208322;-70
2022/10/16 02:09:10;;;;;;;7.43;1.60;;;12.70;99.90;;;;;;5022339;28;20061;-70
2022/10/16 02:11:36;;;;;;;10.93;1.88;;;12.70;99.90;;;;;;4956502;28;209272;-72
2022/10/16 02:14:05;;;;;;;8.82;1.73;;;12.70;99.90;;;;;;5016318;28;20056;-71
2022/10/16 02:16:40;;;;;;;10.60;1.80;;;12.70;99.90;;;;;;4968673;28;206840;-71
2022/10/16 02:19:07;;;;;;;8.38;1.75;;;12.70;99.90;;;;;;5022946;28;20076;-70
2022/10/16 02:21:39;;;;;;;10.70;1.90;;;12.70;99.90;;;;;;4965743;28;210181;-70
2022/10/16 02:24:11;;;;;;;8.48;1.73;;;12.70;99.90;;;;;;5020611;28;20051;-71
2022/10/16 02:26:44;;;;;;;7.90;1.80;;;12.70;99.90;;;;;;4980310;28;207702;-71
2022/10/16 02:29:15;;;;;;;7.95;1.60;;;12.80;99.90;;;;;;5023594;28;20057;-71
2022/10/16 02:31:45;;;;;;;8.60;1.90;;;12.80;99.90;;;;;;4976384;28;206277;-71
2022/10/16 02:34:13;;;;;;;7.60;1.50;;;12.80;99.90;;;;;;5021202;28;20064;-71
2022/10/16 02:36:41;;;;;;;9.75;2.13;;;12.80;99.90;;;;;;4974850;28;206587;-70
2022/10/16 02:39:09;;;;;;;8.10;1.98;;;12.80;99.90;;;;;;5018812;28;20050;-71
2022/10/16 02:41:35;;;;;;;9.43;1.95;;;12.80;99.90;;;;;;4958596;28;211005;-70
2022/10/16 02:44:02;;;;;;;7.07;1.70;;;12.80;99.90;;;;;;5016413;28;20054;-71
2022/10/16 02:46:28;;;;;;;10.45;1.70;;;12.80;99.90;;;;;;4972145;28;229886;-72
2022/10/16 02:48:54;;;;;;;10.13;1.80;;;12.80;99.90;;;;;;5005190;28;20432;-71
2022/10/16 02:51:20;;;;;;;11.93;2.13;;;12.80;99.90;;;;;;4959915;28;213141;-72
2022/10/16 02:53:46;;;;;;;8.15;1.90;;;12.90;99.90;;;;;;5017162;28;21626;-72
2022/10/16 02:56:12;;;;;;;5.97;1.50;;;12.80;99.90;;;;;;4958665;28;215344;-71
2022/10/16 02:58:38;;;;;;;10.27;2.00;;;12.80;99.90;;;;;;5001936;28;20049;-71
2022/10/16 03:01:05;;;;;;;8.05;1.90;;;12.90;99.90;;;;;;4939100;28;210041;-69
2022/10/16 03:03:31;;;;;;;8.55;1.77;;;12.80;99.90;;;;;;5009259;28;20057;-71
2022/10/16 03:05:57;;;;;;;9.32;1.80;;;12.90;99.90;;;;;;4974523;28;208473;-70
2022/10/16 03:08:25;;;;;;;9.32;1.90;;;12.80;99.90;;;;;;5023086;28;20053;-70
2022/10/16 03:10:52;;;;;;;8.50;2.00;;;12.80;99.90;;;;;;4985930;28;216339;-70
2022/10/16 03:13:20;;;;;;;10.07;2.17;;;12.80;99.90;;;;;;5014333;28;20057;-70
2022/10/16 03:15:46;;;;;;;9.38;2.10;;;12.80;99.90;;;;;;4978706;28;206580;-70
2022/10/16 03:18:13;;;;;;;10.52;2.15;;;12.80;99.90;;;;;;5017714;28;20050;-70
2022/10/16 03:20:39;;;;;;;8.93;1.75;;;12.80;99.90;;;;;;4968326;28;207501;-71
2022/10/16 03:23:08;;;;;;;8.63;1.88;;;12.80;99.90;;;;;;5015289;28;20506;-70
2022/10/16 03:25:34;;;;;;;8.18;1.90;;;12.80;99.90;;;;;;4968492;28;220460;-71
2022/10/16 03:28:00;;;;;;;7.55;1.90;;;12.80;99.90;;;;;;4992226;28;20045;-72
2022/10/16 03:30:26;;;;;;;13.18;2.10;;;12.70;99.90;;;;;;4964590;28;211790;-71
2022/10/16 03:32:53;;;;;;;9.35;2.00;;;12.70;99.90;;;;;;5007398;28;20046;-72
2022/10/16 03:35:21;;;;;;;11.43;2.00;;;12.70;99.90;;;;;;4969331;28;207296;-72
2022/10/16 03:37:47;;;;;;;8.77;2.10;;;12.70;99.90;;;;;;5001011;28;20060;-71
2022/10/16 03:40:14;;;;;;;7.65;2.00;;;12.70;99.90;;;;;;4972393;28;224560;-71
2022/10/16 03:42:41;;;;;;;7.63;2.13;;;12.70;99.90;;;;;;5003658;28;20053;-71
2022/10/16 03:45:08;;;;;;;9.05;1.98;;;12.70;99.90;;;;;;4969727;28;221727;-70
2022/10/16 03:47:34;;;;;;;10.77;2.38;;;12.70;99.90;;;;;;4995124;28;20045;-71
2022/10/16 03:50:00;;;;;;;7.88;1.80;;;12.70;99.90;;;;;;4977596;28;211832;-70
2022/10/16 03:52:26;;;;;;;9.93;2.00;;;12.60;99.90;;;;;;5017770;28;20057;-70
2022/10/16 03:54:53;;;;;;;10.65;2.08;;;12.60;99.90;;;;;;4979239;28;224917;-70
2022/10/16 03:57:20;;;;;;;8.40;2.10;;;12.60;99.90;;;;;;5005571;28;20084;-70
2022/10/16 03:59:46;;;;;;;7.93;2.07;;;12.60;99.90;;;;;;4975863;28;212211;-70
2022/10/16 04:02:13;;;;;;;8.50;1.95;;;12.60;99.90;;;;;;5017108;28;20414;-71
2022/10/16 04:04:39;;;;;;;10.75;2.00;;;12.60;99.90;;;;;;4983613;28;211327;-70
2022/10/16 04:07:05;;;;;;;9.25;2.08;;;12.60;99.90;;;;;;4988594;28;209193;-70
2022/10/16 04:09:31;;;;;;;9.27;1.90;;;12.70;99.90;;;;;;5012117;28;20053;-70
2022/10/16 04:11:57;;;;;;;9.88;2.25;;;12.70;99.90;;;;;;4947047;28;211539;-71
2022/10/16 04:14:24;;;;;;;7.07;2.00;;;12.60;99.90;;;;;;5022126;28;20057;-71
2022/10/16 04:16:50;;;;;;;9.32;2.20;;;12.70;99.90;;;;;;4974165;28;209632;-69
2022/10/16 04:19:16;;;;;;;13.13;1.98;;;12.70;99.90;;;;;;5023535;28;20054;-69
2022/10/16 04:21:42;;;;;;;7.65;2.00;;;12.60;99.90;;;;;;4990209;28;221934;-73
2022/10/16 04:24:08;;;;;;;7.40;1.90;;;12.70;99.90;;;;;;5025974;28;20049;-71
2022/10/16 04:26:34;;;;;;;7.20;2.17;;;12.60;99.90;;;;;;4962105;28;204653;-72
2022/10/16 04:29:01;;;;;;;9.32;2.05;;;12.60;99.90;;;;;;5021255;28;20064;-71
2022/10/16 04:31:27;;;;;;;10.13;2.30;;;12.60;99.90;;;;;;4965357;28;208969;-72
2022/10/16 04:33:53;;;;;;;10.88;2.30;;;12.60;99.90;;;;;;5023890;28;20080;-72
2022/10/16 04:36:19;;;;;;;10.57;2.30;;;12.50;99.90;;;;;;4968972;28;213975;-70
2022/10/16 04:38:45;;;;;;;8.95;2.22;;;12.50;99.90;;;;;;5022587;28;20057;-71
2022/10/16 04:41:12;;;;;;;12.35;2.35;;;12.50;99.90;;;;;;4973762;28;209108;-72
2022/10/16 04:43:38;;;;;;;9.93;2.40;;;12.50;99.90;;;;;;5020984;28;20442;-71
2022/10/16 04:46:04;;;;;;;10.10;2.28;;;12.50;99.90;;;;;;4978702;28;206725;-70
2022/10/16 04:48:31;;;;;;;10.40;2.60;;;12.50;99.90;;;;;;5022648;28;20053;-73
2022/10/16 04:50:57;;;;;;;8.93;2.55;;;12.60;99.90;;;;;;4965354;28;235706;-71
2022/10/16 04:53:23;;;;;;;9.18;2.10;;;12.60;99.90;;;;;;5019956;28;20060;-71
2022/10/16 04:55:50;;;;;;;8.15;2.38;;;12.60;99.90;;;;;;4964003;28;214764;-70
2022/10/16 04:58:17;;;;;;;8.88;2.60;;;12.60;99.90;;;;;;5023765;28;20049;-72
2022/10/16 05:00:44;;;;;;;11.07;2.67;;;12.60;99.90;;;;;;4980816;28;221747;-71
2022/10/16 05:03:10;;;;;;;10.52;2.95;;;12.70;99.90;;;;;;5015560;28;20045;-71
2022/10/16 05:05:36;;;;;;;9.52;2.53;;;12.60;99.90;;;;;;4982282;28;209826;-71
2022/10/16 05:08:03;;;;;;;9.63;2.70;;;12.60;99.90;;;;;;5017906;28;20057;-71
2022/10/16 05:10:29;;;;;;;12.98;2.83;;;12.60;99.90;;;;;;4976312;28;196314;-70
2022/10/16 05:12:56;;;;;;;11.40;2.58;;;12.70;99.90;;;;;;5016013;28;20045;-70
2022/10/16 05:15:24;;;;;;;8.93;2.53;;;12.70;99.90;;;;;;4983146;28;155689;-71
2022/10/16 05:17:53;;;;;;;9.00;2.70;;;12.70;99.90;;;;;;4999853;28;20422;-71
2022/10/16 05:20:19;;;;;;;9.98;2.67;;;12.70;99.90;;;;;;4977751;28;220440;-72
2022/10/16 05:22:45;;;;;;;9.77;2.85;;;12.70;99.90;;;;;;5003367;28;21710;-70
2022/10/16 05:25:12;;;;;;;9.30;2.70;;;12.70;99.90;;;;;;4971598;28;215442;-71
2022/10/16 05:27:38;;;;;;;11.05;2.90;;;12.80;99.90;;;;;;5021198;28;20049;-71
2022/10/16 05:30:05;;;;;;;10.45;2.47;;;12.70;99.90;;;;;;4974042;28;205894;-72
2022/10/16 05:32:31;;;;;;;9.30;2.75;;;12.70;99.90;;;;;;5022316;28;20061;-72
2022/10/16 05:34:59;;;;;;;10.27;2.40;;;12.70;99.90;;;;;;4979504;28;226719;-72
2022/10/16 05:37:26;;;;;;;11.20;3.13;;;12.70;99.90;;;;;;5008891;28;20061;-72
2022/10/16 05:39:53;;;;;;;8.60;2.55;;;12.70;99.90;;;;;;4984930;28;216002;-72
2022/10/16 05:42:19;;;;;;;11.85;3.00;;;12.70;99.90;;;;;;4992723;28;20438;-73
2022/10/16 05:44:45;;;;;;;12.17;2.80;;;12.70;99.90;;;;;;4971398;28;222843;-71
2022/10/16 05:47:13;;;;;;;9.30;2.92;;;12.70;99.90;;;;;;5016870;28;20502;-72
2022/10/16 05:49:40;;;;;;;10.07;2.55;;;12.70;99.90;;;;;;4993231;28;216270;-70
2022/10/16 05:52:06;;;;;;;10.25;3.10;;;12.70;99.90;;;;;;5018197;28;20053;-74
2022/10/16 05:54:32;;;;;;;10.65;2.80;;;12.70;99.90;;;;;;5008648;28;20053;-71
2022/10/16 05:56:58;;;;;;;10.88;3.17;;;12.70;99.90;;;;;;4969015;28;207653;-71
2022/10/16 05:59:25;;;;;;;8.15;2.65;;;12.70;99.90;;;;;;5024159;28;20513;-71
2022/10/16 06:01:52;;;;;;;11.23;2.80;;;12.80;99.90;;;;;;4978131;28;162598;-71
2022/10/16 06:04:18;;;;;;;11.13;3.08;;;12.80;99.90;;;;;;5011871;28;20056;-70
2022/10/16 06:06:44;;;;;;;9.98;2.72;;;12.80;99.90;;;;;;4965754;28;196287;-71
2022/10/16 06:09:10;;;;;;;9.70;2.70;;;12.80;99.90;;;;;;5005489;28;20058;-71
2022/10/16 06:11:36;;;;;;;9.63;2.67;;;12.90;99.90;;;;;;4980321;28;209137;-71
2022/10/16 06:14:06;;;;;;;10.60;2.72;;;12.90;99.90;;;;;;5038029;28;20053;-71
2022/10/16 06:16:37;;;;;;;11.70;3.10;;;12.80;99.90;;;;;;4972836;28;224004;-70
2022/10/16 06:19:06;;;;;;;8.90;2.63;;;12.90;99.90;;;;;;5023020;28;20065;-72
2022/10/16 06:21:32;;;;;;;11.27;2.92;;;12.80;99.90;;;;;;4961332;28;212611;-71
2022/10/16 06:23:59;;;;;;;13.13;3.08;;;12.90;99.90;;;;;;5036748;28;20045;-70
2022/10/16 06:26:27;;;;;;;12.10;3.20;;;12.90;99.90;;;;;;4982751;28;212443;-70
2022/10/16 06:28:55;;;;;;;9.95;2.80;;;12.90;99.90;;;;;;5022920;28;20049;-71
2022/10/16 06:31:22;;;;;;;9.23;2.78;;;12.80;99.90;;;;;;4963467;28;202789;-70
2022/10/16 06:33:51;;;;;;;10.63;2.70;;;12.90;99.90;;;;;;5016130;28;20053;-70
2022/10/16 06:36:18;;;;;;;9.63;2.70;;;12.90;99.90;;;;;;4971149;28;214147;-71
2022/10/16 06:38:45;;;;;;;11.25;2.78;;;12.90;99.90;;;;;;5030061;28;20038;-71
2022/10/16 06:41:16;;;;;;;10.60;2.88;;;12.90;99.90;;;;;;4987710;28;213400;-71
2022/10/16 06:43:44;;;;;;;10.52;2.42;;;13.00;99.90;;;;;;5021593;28;20498;-71
2022/10/16 06:46:12;;;;;;;8.93;2.40;;;13.00;99.90;;;;;;4971873;28;209283;-71
2022/10/16 06:48:38;;;;;;;8.90;2.50;;;13.00;99.90;;;;;;5006936;28;20049;-70
2022/10/16 06:51:11;;;;;;;9.18;2.67;;;13.00;99.90;;;;;;4978247;28;192125;-71
2022/10/16 06:53:39;;;;;;;9.02;2.50;;;13.00;99.90;;;;;;5021776;28;20050;-71
2022/10/16 06:56:30;;;;;;;10.90;2.53;;;13.00;99.90;;;;;;4976588;28;218129;-71
2022/10/16 06:58:57;;;;;;;9.63;2.70;;;13.00;99.90;;;;;;5018393;28;20069;-71
2022/10/16 07:01:24;;;;;;;9.57;2.72;;;13.00;99.90;;;;;;4963155;28;239279;-72
2022/10/16 07:03:51;;;;;;;8.75;2.70;;;13.00;99.90;;;;;;5017059;28;20510;-72
2022/10/16 07:06:21;;;;;;;9.77;2.83;;;13.00;99.90;;;;;;4976677;28;220719;-72
2022/10/16 07:08:48;;;;;;;7.90;2.38;;;13.10;99.90;;;;;;5019709;28;20053;-72
2022/10/16 07:11:16;;;;;;;13.05;2.90;;;13.10;99.90;;;;;;4960715;28;213099;-72
2022/10/16 07:13:44;;;;;;;8.05;2.72;;;13.10;99.90;;;;;;5005190;28;20156;-72
2022/10/16 07:16:16;;;;;;;10.55;2.60;;;13.10;99.90;;;;;;4985536;28;205798;-71
2022/10/16 07:18:45;;;;;;;9.65;2.72;;;13.20;99.90;;;;;;5004466;28;20558;-71
2022/10/16 07:21:20;;;;;;;9.60;2.65;;;13.20;99.90;;;;;;4975679;28;93483;-71
2022/10/16 07:23:51;;;;;;;9.05;2.78;;;13.30;99.90;;;;;;5019965;28;20053;-71
2022/10/16 07:26:17;;;;;;;10.85;2.47;;;13.30;99.90;;;;;;4955060;28;218227;-70
2022/10/16 07:28:44;;;;;;;9.60;2.30;;;13.30;99.90;;;;;;5022855;28;20042;-71
2022/10/16 07:31:13;;;;;;;9.63;2.47;;;13.40;99.90;;;;;;4944886;28;218311;-70
2022/10/16 07:33:41;;;;;;;8.32;2.10;;;13.30;99.90;;;;;;5019619;28;20042;-71
2022/10/16 07:36:08;;;;;;;7.75;1.98;;;13.30;99.90;;;;;;4966786;28;207087;-72
2022/10/16 07:38:34;;;;;;;9.80;2.50;;;13.40;99.90;;;;;;5014219;28;20064;-71
2022/10/16 07:41:03;;;;;;;9.93;2.40;;;13.40;99.90;;;;;;4970078;28;190325;-70
2022/10/16 07:43:30;;;;;;;9.55;2.28;;;13.40;99.90;;;;;;4997336;28;20053;-70
2022/10/16 07:45:57;;;;;;;10.13;2.30;;;13.50;99.90;;;;;;4976622;28;206934;-72
2022/10/16 07:48:26;;;;;;;9.52;2.42;;;13.50;99.90;;;;;;4998521;28;20528;-71
2022/10/16 07:50:52;;;;;;;7.78;2.17;;;13.50;99.90;;;;;;4966601;28;215623;-72
2022/10/16 07:53:18;;;;;;;9.88;2.50;;;13.60;99.90;;;;;;5024969;28;20048;-71
2022/10/16 07:55:44;;;;;;;8.52;1.80;;;13.60;99.90;;;;;;4968520;28;213356;-69
2022/10/16 07:58:10;;;;;;;7.63;2.00;;;13.60;99.90;;;;;;4997736;28;20053;-71
2022/10/16 08:00:37;;;;;;;8.18;2.00;;;13.70;99.90;;;;;;4963573;28;207828;-72
2022/10/16 08:03:03;;;;;;;9.68;2.20;;;13.80;99.90;;;;;;5014899;28;20082;-72
2022/10/16 08:05:32;;;;;;;11.27;2.40;;;13.80;99.90;;;;;;4981661;28;187769;-71
2022/10/16 08:07:58;;;;;;;8.77;2.00;;;13.90;99.90;;;;;;5015932;28;20224;-72
2022/10/16 08:10:26;;;;;;;9.27;2.40;;;13.90;99.90;;;;;;4974185;28;209249;-71
2022/10/16 08:12:53;;;;;;;8.32;1.80;;;13.90;99.90;;;;;;5009763;28;20779;-72
2022/10/16 08:15:20;;;;;;;9.82;1.98;;;13.90;99.90;;;;;;4972951;28;238744;-71
2022/10/16 08:18:00;;;;;;;9.65;2.10;;;14.00;99.90;;;;;;5034389;28;20411;-71
2022/10/16 08:20:28;;;;;;;8.40;1.80;;;14.00;99.90;;;;;;4968294;28;207863;-72
2022/10/16 08:22:55;;;;;;;8.90;1.80;;;14.00;99.90;;;;;;5013344;28;20415;-72
2022/10/16 08:25:24;;;;;;;10.30;1.90;;;14.00;99.90;;;;;;4971770;28;212178;-73
2022/10/16 08:27:51;;;;;;;9.23;1.80;;;13.90;99.90;;;;;;5027056;28;20500;-72
2022/10/16 08:30:22;;;;;;;11.95;1.70;;;13.90;99.90;;;;;;4966681;28;209620;-71
2022/10/16 08:32:51;;;;;;;6.82;1.50;;;14.00;99.90;;;;;;5002409;28;20045;-73
2022/10/16 08:35:17;;;;;;;8.70;1.60;;;14.00;99.90;;;;;;4953721;28;231315;-72
2022/10/16 08:37:46;;;;;;;9.82;1.40;;;14.00;99.90;;;;;;5001433;28;20057;-72
2022/10/16 08:40:28;;;;;;;8.68;1.65;;;14.00;99.90;;;;;;4957996;28;207019;-72
2022/10/16 08:42:57;;;;;;;8.43;1.48;;;14.10;99.90;;;;;;5006526;28;20053;-71
2022/10/16 08:45:31;;;;;;;8.57;1.58;;;14.00;99.90;;;;;;4958700;28;202972;-72
2022/10/16 08:48:30;;;;;;;10.65;1.45;;;14.10;99.90;;;;;;4997176;28;20054;-70
2022/10/16 08:50:56;;;;;;;8.75;1.80;;;14.20;99.90;;;;;;4975063;28;206577;-71
2022/10/16 08:53:31;;;;;;;10.65;2.03;;;14.20;99.90;;;;;;5007801;28;20053;-70
2022/10/16 08:55:58;;;;;;;8.45;1.52;;;14.30;99.90;;;;;;4977232;28;138224;-72
2022/10/16 08:58:29;;;;;;;7.85;1.60;;;14.40;99.90;;;;;;5017607;28;20511;-74
2022/10/16 09:00:58;;;;;;;8.18;1.70;;;14.40;99.90;;;;;;4976567;28;94479;-71
2022/10/16 09:03:59;;;;;;;8.90;1.67;;;14.40;99.90;;;;;;5006748;28;20064;-71
2022/10/16 09:07:16;;;;;;;8.65;1.70;;;14.50;99.90;;;;;;4959975;28;215797;-72
2022/10/16 09:10:03;;;;;;;8.95;1.70;;;14.50;99.90;;;;;;4939780;28;209206;-72
2022/10/16 09:12:44;;;;;;;9.45;1.75;;;14.60;99.90;;;;;;4967050;28;20769;-70
2022/10/16 09:15:34;;;;;;;11.93;1.85;;;14.60;99.90;;;;;;4939942;28;208878;-71
2022/10/16 09:18:09;;;;;;;12.05;1.73;;;14.60;99.90;;;;;;4961692;28;20435;-71
2022/10/16 09:21:12;;;;;;;12.90;2.08;;;14.60;99.90;;;;;;4935717;28;228725;-71
2022/10/16 09:23:38;;;;;;;12.77;2.00;;;14.70;99.90;;;;;;4961643;28;20049;-71
2022/10/16 09:26:09;;;;;;;11.02;1.95;;;14.80;99.90;;;;;;4922387;28;215463;-71
2022/10/16 09:28:35;;;;;;;;;;;14.90;99.90;;;;;;4973650;28;20097;-70
2022/10/16 09:31:01;;;;;;;11.40;1.75;;;14.90;99.90;;;;;;4924434;28;205648;-71
2022/10/16 09:33:36;;;;;;;9.85;1.85;;;15.00;99.90;;;;;;4979985;28;20049;-71
2022/10/16 09:36:04;;;;;;;17.27;2.00;;;15.10;99.90;;;;;;4903058;28;206501;-71
2022/10/16 09:38:35;;;;;;;14.63;2.00;;;15.10;99.90;;;;;;4975266;28;20733;-70
2022/10/16 09:41:20;;;;;;;9.52;1.77;;;15.20;99.90;;;;;;4905593;28;212307;-71
2022/10/16 09:43:54;;;;;;;12.35;1.70;;;15.40;99.90;;;;;;4976536;28;20404;-70
2022/10/16 09:46:36;;;;;;;12.57;1.95;;;15.60;99.90;;;;;;4958609;28;176918;-71
2022/10/16 09:49:25;;;;;;;14.63;2.03;;;15.80;99.90;;;;;;5004891;28;20049;-71
2022/10/16 09:52:02;;;;;;;14.60;2.20;;;15.70;99.90;;;;;;4953151;28;230742;-70
2022/10/16 09:54:29;;;;;;;13.40;2.00;;;15.70;99.90;;;;;;5020736;28;20064;-70
2022/10/16 09:57:07;;;;;;;10.63;1.60;;;15.70;99.90;;;;;;4945982;28;215065;-71
2022/10/16 09:59:34;;;;;;;11.38;1.80;;;15.80;99.90;;;;;;5026989;28;20062;-69
2022/10/16 10:02:10;;;;;;;14.82;2.17;;;15.90;99.90;;;;;;4949837;28;274076;-70
2022/10/16 10:04:44;;;;;;;9.88;1.90;;;15.90;99.90;;;;;;5002797;28;206222;-70
2022/10/16 10:07:19;;;;;;;13.95;2.15;;;15.90;99.90;;;;;;4959535;28;227094;-70
2022/10/16 10:09:47;;;;;;;13.45;2.35;;;16.00;99.90;;;;;;4979463;28;251407;-71
2022/10/16 10:12:25;;;;;;;13.20;2.08;;;16.00;99.90;;;;;;5012838;28;20061;-70
2022/10/16 10:14:53;;;;;;;13.68;2.10;;;16.10;99.90;;;;;;4975899;28;211387;-71
2022/10/16 10:17:25;;;;;;;12.45;1.90;;;16.10;99.90;;;;;;5018550;28;20224;-70
2022/10/16 10:20:09;;;;;;;12.50;1.85;;;16.10;99.90;;;;;;4966562;28;212066;-70
2022/10/16 10:22:45;;;;;;;12.63;2.22;;;16.20;99.90;;;;;;4995784;28;20064;-71
2022/10/16 10:25:11;;;;;;;16.55;1.98;;;16.20;99.90;;;;;;4973276;28;207093;-69
2022/10/16 10:27:46;;;;;;;19.33;2.50;;;16.20;99.90;;;;;;4994734;28;20049;-69
2022/10/16 10:30:25;;;;;;;12.70;2.05;;;16.20;99.90;;;;;;4952457;28;218868;-69
2022/10/16 10:33:07;;;;;;;18.60;2.30;;;16.30;99.90;;;;;;5010770;28;20057;-72
2022/10/16 10:36:14;;;;;;;11.70;1.90;;;16.30;99.90;;;;;;4976173;28;174877;-70
2022/10/16 10:38:58;;;;;;;16.35;2.00;;;16.40;99.90;;;;;;5017754;28;20058;-68
2022/10/16 10:42:07;;;;;;;12.85;1.88;;;16.40;99.90;;;;;;4958026;28;215065;-70
2022/10/16 10:45:04;;;;;;;15.00;2.50;;;16.40;99.90;;;;;;4963131;28;20053;-71
2022/10/16 10:47:36;;;;;;;16.95;2.35;;;16.40;99.90;;;;;;4910480;28;206991;-71
2022/10/16 10:50:21;;;;;;;13.65;2.42;;;16.40;99.90;;;;;;4919605;28;206810;-72
2022/10/16 10:53:04;;;;;;;14.30;2.20;;;16.50;99.90;;;;;;4942286;28;20050;-72
2022/10/16 10:55:53;;;;;;;11.88;1.92;;;16.50;99.90;;;;;;4934644;28;206376;-70
2022/10/16 10:59:08;;;;;;;17.83;2.45;;;16.60;99.90;;;;;;4978499;28;20054;-72
2022/10/16 11:01:37;;;;;;;15.70;2.70;;;16.70;99.90;;;;;;4843430;29;216380;-71
2022/10/16 11:04:30;;;;;;;14.88;2.38;;;16.70;99.90;;;;;;4883893;29;20064;-70
2022/10/16 11:07:02;;;;;;;17.25;2.20;;;16.70;99.90;;;;;;4831988;29;208138;-72
2022/10/16 11:09:44;;;;;;;12.95;2.15;;;16.60;99.90;;;;;;4875670;29;20057;-73
2022/10/16 11:12:31;;;;;;;21.60;2.58;;;16.70;99.90;;;;;;4802851;29;208157;-72
2022/10/16 11:15:19;;;;;;;14.55;2.10;;;16.80;99.90;;;;;;4824855;29;223471;-72
2022/10/16 11:17:51;;;;;;;16.45;2.65;;;16.80;99.90;;;;;;4858404;29;20470;-71
2022/10/16 11:20:20;;;;;;;17.05;2.40;;;16.90;99.90;;;;;;4832354;29;208691;-71
2022/10/16 11:23:07;;;;;;;12.98;2.10;;;17.00;99.90;;;;;;4925268;28;20067;-72
2022/10/16 11:25:34;;;;;;;13.88;2.25;;;17.00;99.90;;;;;;4865348;29;208150;-72
2022/10/16 11:28:15;;;;;;;13.52;2.20;;;17.00;99.90;;;;;;4912792;29;20058;-71
2022/10/16 11:30:41;;;;;;;12.68;2.17;;;17.00;99.90;;;;;;4891902;28;224964;-72
2022/10/16 11:33:07;;;;;;;18.67;2.17;;;17.00;99.90;;;;;;4914382;28;20047;-71
2022/10/16 11:35:40;;;;;;;14.82;2.78;;;17.40;99.90;;;;;;4878668;29;209668;-72
2022/10/16 11:38:18;;;;;;;15.68;2.40;;;18.60;99.90;;;;;;4935673;28;20049;-71
2022/10/16 11:40:50;;;;;;;16.70;2.60;;;19.40;99.90;;;;;;4968687;28;214710;-72
2022/10/16 11:43:25;;;;;;;15.38;2.35;;;20.00;99.90;;;;;;5018757;28;20071;-72
2022/10/16 11:45:57;;;;;;;22.08;2.75;;;19.90;99.90;;;;;;4954418;28;208610;-72
2022/10/16 11:48:29;;;;;;;14.07;2.30;;;19.80;98.50;;;;;;4995399;28;20061;-72
2022/10/16 11:51:14;;;;;;;12.35;2.15;;;19.80;99.90;;;;;;4983451;28;184501;-71
2022/10/16 11:53:55;;;;;;;13.18;2.03;;;20.10;98.40;;;;;;5005199;28;20053;-73
2022/10/16 11:56:21;;;;;;;;;;;20.70;98.50;;;;;;4952709;28;211061;-71
2022/10/16 11:59:13;;;;;;;15.73;2.45;;;20.60;97.10;;;;;;5021346;28;19917;-72
2022/10/16 12:01:47;;;;;;;13.38;2.20;;;21.00;97.20;;;;;;4966183;28;222146;-72
2022/10/16 12:04:19;;;;;;;12.05;2.10;;;21.70;97.00;;;;;;5036493;28;20061;-72
2022/10/16 12:07:03;;;;;;;17.25;2.38;;;22.10;97.40;;;;;;4982167;28;208975;-72
2022/10/16 12:09:31;;;;;;;18.92;2.80;;;22.50;96.10;;;;;;5019772;28;20056;-72
2022/10/16 12:11:58;;;;;;;14.23;2.35;;;22.90;96.50;;;;;;4971860;28;208779;-72
2022/10/16 12:14:39;;;;;;;11.82;1.92;;;22.50;95.50;;;;;;5018323;28;20545;-73
2022/10/16 12:17:37;;;;;;;13.63;2.53;;;22.60;94.70;;;;;;4945665;28;209772;-73
2022/10/16 12:20:31;;;;;;;14.85;2.33;;;22.20;93.80;;;;;;4972618;28;228186;-72
2022/10/16 12:23:01;;;;;;;13.95;2.58;;;22.40;94.30;;;;;;5012279;28;20061;-72
2022/10/16 12:25:31;;;;;;;13.93;2.17;;;22.80;94.90;;;;;;4971169;28;209794;-71
2022/10/16 12:28:04;;;;;;;10.40;1.88;;;22.80;93.60;;;;;;5012374;28;20557;-72
2022/10/16 12:30:32;;;;;;;15.13;2.47;;;22.80;93.50;;;;;;4977669;28;204089;-71
2022/10/16 12:33:21;;;;;;;13.13;2.50;;;23.00;93.20;;;;;;5014223;28;20396;-73
2022/10/16 12:35:47;;;;;;;13.00;2.30;;;22.90;91.60;;;;;;4955413;28;208928;-70
2022/10/16 12:38:21;;;;;;;13.27;2.40;;;21.50;94.20;;;;;;5017778;28;20057;-72
2022/10/16 12:41:08;;;;;;;13.88;2.42;;;21.30;94.50;;;;;;4976802;28;211096;-74
2022/10/16 12:43:46;;;;;;;13.63;2.50;;;20.80;94.20;;;;;;5031826;28;20050;-70
2022/10/16 12:46:12;;;;;;;20.70;2.50;;;20.00;95.40;;;;;;4942586;28;233210;-71
2022/10/16 12:48:41;;;;;;;16.92;2.60;;;19.50;95.90;;;;;;5025305;28;20680;-71
2022/10/16 12:51:33;;;;;;;12.30;1.90;;;19.90;96.10;;;;;;4976653;28;218896;-71
2022/10/16 12:54:02;;;;;;;13.57;2.00;;;20.60;94.50;;;;;;5011960;28;20080;-70
2022/10/16 12:56:56;;;;;;;14.18;2.30;;;21.70;95.20;;;;;;4978578;28;205384;-70